United States

Current Flights

Info
Name: United States
Identifier:  QQT/KTKI
Local Time:  19. May 15:05
City
Flights per Day
6 flights
Punctuality
91% (0 flights per day delayed)
Delay Average: 63 minutes
Current Weather
 21 C (Humidity: 77%)
  9kt (16km/h / 10mph) from 350°
  16km (10 mi.)
 
 METAR KTKI 191353Z 35009KT 10SM CLR 21/17 A2988 RMK AO2 SLP117 T02110167 $

Current Delays

Departures
N/A
Arrivals
N/A

Destinations

Top Destinations
Airport Flights
per week
Seats
per week
  Dallas (ADS) 7 - 1 0
  Houston (HOU) <1 - 0 0
  Dallas (DAL) <1 - 0 0
  Oklahoma City (OKC) <1 - 0 0
  Houston (DWH) <1 - 0 0
  Longview (GGG) <1 - 0 0

Airlines & Planes

Top Airlines
Airline Flights
per Day
Seats
per Day
Jet Charter Inc ( Franklin Lakes Nj ) 1 -
  National Airlines 1 -
  Nolinor Aviation 1 -
  Flybe Nordic 1 -
  Novair <1 -
Nordwind Airlines <1 -
NetJets <1 -
Jet Linx Aviation <1 -
Executive Flight Services <1 -
Gama Aviation <1 -
Top Plane Types
Manufacturer Model Flights Seats
Cessna C172 2.0/day - 0
Embraer Phenom 300 0.8/day - 0
Dassault Falcon 20 0.4/day - 0
Cessna C56X 0.2/day - -0.06666666666666667
Cessna C25C 0.2/day - 0